CheckWX is a tool to help pilots better visualize weather data.  It is not intended as a substitute for an official pre-flight weather briefing.

14:16:50 UTC

CYMM METAR
Fort McMurray Airport
Fort McMurray, Canada
Current

1 hour ago

CYMM 221300Z AUTO 09005KT 9SM FEW110 03/M06 A2995 RMK SLP159
Observed
Apr-22 @ 13:00 UTC
Wind
  • 090° at 5 KTS
Visibility
9 SM
Flight Rules
VFR
Cloud Levels
  • Few at 11,000' AGL
Temperature
C / 37°F
Dewpoint
-6°C / 21°F
Humidity
52%
Altimeter
29.95" Hg
Pressure
1014.22 hPa
Previous

2 hours ago

CYMM 221200Z AUTO 08005KT 9SM BKN110 BKN130 02/M06 A2996 RMK SLP163
Observed
Apr-22 @ 12:00 UTC
Wind
  • 080° at 5 KTS
Visibility
9 SM
Flight Rules
VFR
Cloud Levels
  • Broken at 11,000' AGL
  • Broken at 13,000' AGL
Temperature
C / 36°F
Dewpoint
-6°C / 21°F
Humidity
56%
Altimeter
29.96" Hg
Pressure
1014.52 hPa
Previous

3 hours ago

CYMM 221100Z AUTO 09007KT 9SM SCT110 02/M05 A2998 RMK SLP168
Observed
Apr-22 @ 11:00 UTC
Wind
  • 090° at 7 KTS
Visibility
9 SM
Flight Rules
VFR
Cloud Levels
  • Scattered at 11,000' AGL
Temperature
C / 36°F
Dewpoint
-5°C / 23°F
Humidity
60%
Altimeter
29.98" Hg
Pressure
1015.22 hPa